createdAt,value
2023-01-23T00:00:35.858Z,3.86
2023-01-23T00:05:41.247Z,3.93
2023-01-23T00:10:46.776Z,3.90
2023-01-23T00:15:52.537Z,3.98
2023-01-23T00:20:58.914Z,3.99
2023-01-23T00:26:07.082Z,4.00
2023-01-23T00:31:15.976Z,4.02
2023-01-23T00:36:21.781Z,3.94
2023-01-23T00:41:28.270Z,3.95
2023-01-23T00:46:35.171Z,3.99
2023-01-23T00:51:40.713Z,4.02
2023-01-23T00:56:46.156Z,3.98
2023-01-23T01:01:53.087Z,3.92
2023-01-23T01:06:59.630Z,3.83
2023-01-23T01:12:05.342Z,3.76
2023-01-23T01:17:10.884Z,3.84
2023-01-23T01:22:16.617Z,3.98
2023-01-23T01:27:22.797Z,4.01
2023-01-23T01:32:28.758Z,3.96
2023-01-23T01:37:36.746Z,3.86
2023-01-23T01:42:45.023Z,3.86
2023-01-23T01:47:50.416Z,3.88
2023-01-23T01:52:56.219Z,3.81
2023-01-23T01:58:02.853Z,3.86
2023-01-23T02:03:09.055Z,3.89
2023-01-23T02:08:30.194Z,3.90
2023-01-23T02:13:39.944Z,3.86
2023-01-23T02:18:51.453Z,3.83
2023-01-23T02:24:04.865Z,3.90
2023-01-23T02:29:11.351Z,3.90
2023-01-23T02:34:22.936Z,3.86
2023-01-23T02:39:28.542Z,3.86
2023-01-23T02:44:34.556Z,3.83
2023-01-23T02:49:42.912Z,3.87
2023-01-23T02:54:48.702Z,3.87
2023-01-23T03:00:12.180Z,3.77
2023-01-23T03:05:19.441Z,3.77
2023-01-23T03:10:24.998Z,3.80
2023-01-23T03:15:31.649Z,3.74
2023-01-23T03:20:42.337Z,3.68
2023-01-23T03:25:49.143Z,3.71
2023-01-23T03:30:54.689Z,3.74
2023-01-23T03:36:01.245Z,3.80
2023-01-23T03:41:25.486Z,3.83
2023-01-23T03:46:32.839Z,3.86
2023-01-23T03:51:38.739Z,3.85
2023-01-23T03:56:44.477Z,3.84
2023-01-23T04:02:12.737Z,3.86
2023-01-23T04:07:18.375Z,3.89
2023-01-23T04:12:25.588Z,3.92
2023-01-23T04:17:32.544Z,3.90
2023-01-23T04:22:38.244Z,3.87
2023-01-23T04:27:43.878Z,3.91
2023-01-23T04:32:50.100Z,3.85
2023-01-23T04:37:56.762Z,3.74
2023-01-23T04:43:03.450Z,3.65
2023-01-23T04:48:11.319Z,3.65
2023-01-23T04:53:17.263Z,3.70
2023-01-23T04:58:23.808Z,3.70
2023-01-23T05:03:29.538Z,3.72
2023-01-23T05:08:35.301Z,3.74
2023-01-23T05:13:42.642Z,3.71
2023-01-23T05:18:48.515Z,3.72
2023-01-23T05:23:54.737Z,3.74
2023-01-23T05:29:00.563Z,3.72
2023-01-23T05:34:06.955Z,3.74
2023-01-23T05:39:14.174Z,3.72
2023-01-23T05:44:21.026Z,3.78
2023-01-23T05:49:28.256Z,3.76
2023-01-23T05:54:34.423Z,3.70
2023-01-23T05:59:40.544Z,3.60
2023-01-23T06:04:55.916Z,3.58
2023-01-23T06:10:03.173Z,3.60
2023-01-23T06:15:10.997Z,3.64
2023-01-23T06:20:16.810Z,3.58
2023-01-23T06:25:23.395Z,3.67
2023-01-23T06:30:30.470Z,3.66
2023-01-23T06:35:36.122Z,3.66
2023-01-23T06:40:45.131Z,3.61
2023-01-23T06:45:52.342Z,3.57
2023-01-23T06:51:01.283Z,3.60
2023-01-23T06:56:09.095Z,3.60
2023-01-23T07:01:17.854Z,3.64
2023-01-23T07:06:32.003Z,3.63
2023-01-23T07:11:37.739Z,3.60
2023-01-23T07:16:43.879Z,3.60
2023-01-23T07:21:50.745Z,3.58
2023-01-23T07:26:56.144Z,3.63
2023-01-23T07:32:01.637Z,3.63
2023-01-23T07:37:07.169Z,3.61
2023-01-23T07:42:13.009Z,3.53
2023-01-23T07:47:19.730Z,3.66
2023-01-23T07:52:25.416Z,3.66
2023-01-23T07:57:31.061Z,3.69
2023-01-23T08:02:37.925Z,3.68
2023-01-23T08:07:44.303Z,3.68
2023-01-23T08:12:49.755Z,3.71
2023-01-23T08:17:55.685Z,3.75
2023-01-23T08:23:02.585Z,3.79
2023-01-23T08:28:08.112Z,3.98
2023-01-23T08:33:13.715Z,4.00
2023-01-23T08:38:19.904Z,3.93
2023-01-23T08:43:25.361Z,3.93
2023-01-23T08:48:31.414Z,3.85
2023-01-23T08:53:37.851Z,3.96
2023-01-23T08:58:43.552Z,4.02
2023-01-23T09:03:49.395Z,4.18
2023-01-23T09:08:54.934Z,4.21
2023-01-23T09:14:00.319Z,4.26
2023-01-23T09:19:05.694Z,4.22
2023-01-23T09:24:11.288Z,4.16
2023-01-23T09:29:17.125Z,4.22
2023-01-23T09:34:22.597Z,4.28
2023-01-23T09:39:28.203Z,4.28
2023-01-23T09:44:53.273Z,4.30
2023-01-23T09:50:02.171Z,4.28
2023-01-23T09:55:16.484Z,4.25
2023-01-23T10:00:33.087Z,4.22
2023-01-23T10:05:58.271Z,4.32
2023-01-23T10:11:30.391Z,4.29
2023-01-23T10:16:50.416Z,4.25
2023-01-23T10:22:00.455Z,4.43
2023-01-23T10:27:14.461Z,4.55
2023-01-23T10:38:04.582Z,4.28
2023-01-23T10:43:15.373Z,4.28
2023-01-23T10:48:39.593Z,4.26
2023-01-23T10:53:45.318Z,4.37
2023-01-23T10:58:51.442Z,4.36
2023-01-23T11:03:57.607Z,4.36
2023-01-23T11:09:04.838Z,4.36
2023-01-23T11:14:17.978Z,4.37
2023-01-23T11:19:24.540Z,4.41
2023-01-23T11:24:40.867Z,4.33
2023-01-23T11:29:58.652Z,4.33
2023-01-23T11:35:16.036Z,4.26
2023-01-23T11:40:22.011Z,4.22
2023-01-23T11:45:33.049Z,4.30
2023-01-23T11:50:54.950Z,4.30
2023-01-23T11:55:57.289Z,4.32
2023-01-23T12:01:25.333Z,4.27
2023-01-23T12:06:42.617Z,4.32
2023-01-23T12:12:06.032Z,4.31
2023-01-23T12:17:29.685Z,4.31
2023-01-23T12:22:38.158Z,4.17
2023-01-23T12:27:46.179Z,4.28
2023-01-23T12:33:14.659Z,4.27
2023-01-23T12:38:35.179Z,4.22
2023-01-23T12:43:43.621Z,4.22
2023-01-23T12:49:01.189Z,4.16
2023-01-23T12:54:09.622Z,4.06
2023-01-23T12:59:20.833Z,4.01
2023-01-23T13:04:44.878Z,4.17
2023-01-23T13:09:57.404Z,4.25
2023-01-23T13:15:30.832Z,4.22
2023-01-23T13:20:55.297Z,4.26
2023-01-23T13:26:22.189Z,4.37
2023-01-23T13:31:47.293Z,4.21
2023-01-23T13:36:54.099Z,4.09
2023-01-23T13:42:18.665Z,4.01
2023-01-23T13:47:45.145Z,4.03
2023-01-23T13:53:14.218Z,3.99
2023-01-23T13:58:22.594Z,4.07
2023-01-23T14:03:48.799Z,4.07
2023-01-23T14:08:55.960Z,4.02
2023-01-23T14:14:21.590Z,3.99
2023-01-23T14:19:31.495Z,4.03
2023-01-23T14:24:46.113Z,3.89
2023-01-23T14:30:02.999Z,3.82
2023-01-23T14:35:21.117Z,3.83
2023-01-23T14:40:33.232Z,3.76
2023-01-23T14:45:35.551Z,3.71
2023-01-23T14:50:41.209Z,3.66
2023-01-23T14:55:50.752Z,3.69
2023-01-23T15:00:56.980Z,3.53
2023-01-23T15:06:05.614Z,3.68
2023-01-23T15:11:13.359Z,3.72
2023-01-23T15:16:29.121Z,3.80
2023-01-23T15:21:40.864Z,3.57
2023-01-23T15:26:51.732Z,4.63
2023-01-23T15:32:00.687Z,3.90
2023-01-23T15:37:21.347Z,3.60
2023-01-23T15:42:35.280Z,3.54
2023-01-23T15:47:40.830Z,3.44
2023-01-23T15:52:49.240Z,3.47
2023-01-23T15:57:55.966Z,3.38
2023-01-23T16:03:01.767Z,3.24
2023-01-23T16:08:09.503Z,3.24
2023-01-23T16:13:15.619Z,3.18
2023-01-23T16:18:21.275Z,3.25
2023-01-23T16:23:31.227Z,3.29
2023-01-23T16:28:34.210Z,3.40
2023-01-23T16:33:39.677Z,3.27
2023-01-23T16:38:51.790Z,3.23
2023-01-23T16:43:57.401Z,3.17
2023-01-23T16:49:02.876Z,3.23
2023-01-23T16:54:18.250Z,3.30
2023-01-23T16:59:20.548Z,3.36
2023-01-23T17:04:26.000Z,3.31
2023-01-23T17:09:31.467Z,3.23
2023-01-23T17:14:38.194Z,3.17
2023-01-23T17:19:45.259Z,3.21
2023-01-23T17:24:50.878Z,3.15
2023-01-23T17:29:56.407Z,3.15
2023-01-23T17:35:04.234Z,3.16
2023-01-23T17:40:12.904Z,3.13
2023-01-23T17:45:21.044Z,3.08
2023-01-23T17:50:27.914Z,3.04
2023-01-23T17:55:33.500Z,3.09
2023-01-23T18:00:40.632Z,3.17
2023-01-23T18:05:46.187Z,3.22
2023-01-23T18:10:54.066Z,3.22
2023-01-23T18:16:26.840Z,3.23
2023-01-23T18:21:32.736Z,3.18
2023-01-23T18:26:59.969Z,3.24
2023-01-23T18:32:24.817Z,3.22
2023-01-23T18:37:48.632Z,3.26
2023-01-23T18:43:03.028Z,3.28
2023-01-23T18:48:24.729Z,3.17
2023-01-23T18:53:28.273Z,3.09
2023-01-23T18:58:50.291Z,2.98
2023-01-23T19:03:57.453Z,2.94
2023-01-23T19:09:03.589Z,2.98
2023-01-23T19:14:17.683Z,3.05
2023-01-23T19:19:28.923Z,3.16
2023-01-23T19:24:34.624Z,3.13
2023-01-23T19:29:41.330Z,3.05
2023-01-23T19:34:46.786Z,2.98
2023-01-23T19:39:52.166Z,3.02
2023-01-23T19:44:57.562Z,3.17
2023-01-23T19:50:03.028Z,3.05
2023-01-23T19:55:08.800Z,3.01
2023-01-23T20:00:18.619Z,3.08
2023-01-23T20:05:24.957Z,3.07
2023-01-23T20:10:30.566Z,3.00
2023-01-23T20:15:36.058Z,2.97
2023-01-23T20:20:41.601Z,2.75
2023-01-23T20:25:47.180Z,2.72
2023-01-23T20:30:54.303Z,2.61
2023-01-23T20:35:59.918Z,3.57
2023-01-23T20:41:07.925Z,3.57
2023-01-23T20:46:15.627Z,3.01
2023-01-23T20:51:21.179Z,2.89
2023-01-23T20:56:28.294Z,2.86
2023-01-23T21:01:54.397Z,2.86
2023-01-23T21:07:00.220Z,2.85
2023-01-23T21:12:06.299Z,2.85
2023-01-23T21:17:12.052Z,2.82
2023-01-23T21:22:17.468Z,2.68
2023-01-23T21:27:25.131Z,2.65
2023-01-23T21:32:30.300Z,2.66
2023-01-23T21:37:36.189Z,2.78
2023-01-23T21:42:41.868Z,2.84
2023-01-23T21:47:47.380Z,2.84
2023-01-23T21:52:52.902Z,2.98
2023-01-23T21:57:58.377Z,3.05
2023-01-23T22:03:03.937Z,2.87
2023-01-23T22:08:09.454Z,2.70
2023-01-23T22:13:15.089Z,2.72
2023-01-23T22:18:20.482Z,2.77
2023-01-23T22:23:26.906Z,2.73
2023-01-23T22:28:33.645Z,2.86
2023-01-23T22:33:43.995Z,2.82
2023-01-23T22:38:54.038Z,2.72
2023-01-23T22:44:02.335Z,2.70
2023-01-23T22:49:07.808Z,2.70
2023-01-23T22:54:13.434Z,2.71
2023-01-23T22:59:18.823Z,2.67
2023-01-23T23:04:24.242Z,2.69
2023-01-23T23:09:29.952Z,2.68
2023-01-23T23:14:37.021Z,2.59
2023-01-23T23:19:42.494Z,2.48
2023-01-23T23:24:49.505Z,2.27
2023-01-23T23:29:54.916Z,2.47
2023-01-23T23:35:00.446Z,2.73
2023-01-23T23:40:06.919Z,2.81
2023-01-23T23:45:12.861Z,2.86
2023-01-23T23:50:18.771Z,2.82
2023-01-23T23:55:24.158Z,2.65
